createdAt,value
2022-10-07T00:00:28.040Z,2.150
2022-10-07T00:01:28.456Z,2.300
2022-10-07T00:02:22.022Z,2.050
2022-10-07T00:03:32.235Z,2.100
2022-10-07T00:04:22.813Z,2.100
2022-10-07T00:05:23.167Z,1.950
2022-10-07T00:06:35.441Z,2.550
2022-10-07T00:07:31.852Z,2.400
2022-10-07T00:08:38.281Z,2.500
2022-10-07T00:09:23.511Z,2.450
2022-10-07T00:10:35.791Z,2.200
2022-10-07T00:11:27.810Z,2.150
2022-10-07T00:12:26.439Z,1.900
2022-10-07T00:13:35.303Z,2.100
2022-10-07T00:14:28.506Z,2.400
2022-10-07T00:15:23.946Z,2.750
2022-10-07T00:16:22.436Z,2.700
2022-10-07T00:17:33.736Z,2.600
2022-10-07T00:18:27.398Z,2.300
2022-10-07T00:19:21.890Z,2.600
2022-10-07T00:20:20.268Z,2.300
2022-10-07T00:21:30.048Z,2.000
2022-10-07T00:22:24.846Z,2.050
2022-10-07T00:23:20.019Z,2.200
2022-10-07T00:24:30.432Z,1.900
2022-10-07T00:25:33.416Z,2.400
2022-10-07T00:26:22.599Z,2.200
2022-10-07T00:27:26.996Z,2.200
2022-10-07T00:28:23.459Z,2.050
2022-10-07T00:29:27.174Z,2.000
2022-10-07T00:30:22.480Z,1.900
2022-10-07T00:31:34.363Z,2.150
2022-10-07T00:32:28.400Z,2.300
2022-10-07T00:33:21.254Z,2.300
2022-10-07T00:34:35.973Z,2.650
2022-10-07T00:35:24.111Z,2.700
2022-10-07T00:36:24.483Z,2.850
2022-10-07T00:37:21.466Z,2.500
2022-10-07T00:38:30.029Z,2.500
2022-10-07T00:39:30.305Z,2.600
2022-10-07T00:40:26.098Z,2.350
2022-10-07T00:41:37.629Z,2.000
2022-10-07T00:42:32.673Z,2.250
2022-10-07T00:43:24.210Z,2.400
2022-10-07T00:44:20.353Z,2.650
2022-10-07T00:45:32.295Z,2.600
2022-10-07T00:46:27.221Z,2.400
2022-10-07T00:47:24.452Z,2.600
2022-10-07T00:48:33.457Z,2.550
2022-10-07T00:49:31.857Z,2.500
2022-10-07T00:50:28.648Z,2.550
2022-10-07T00:51:22.331Z,2.950
2022-10-07T00:52:30.073Z,2.700
2022-10-07T00:53:30.906Z,2.750
2022-10-07T00:54:22.486Z,2.900
2022-10-07T00:55:33.346Z,2.600
2022-10-07T00:56:28.176Z,2.500
2022-10-07T00:57:30.264Z,2.700
2022-10-07T00:58:26.009Z,2.600
2022-10-07T00:59:46.185Z,2.550
2022-10-07T01:00:58.702Z,2.500
2022-10-07T01:01:25.040Z,2.250
2022-10-07T02:25:25.674Z,1.900
2022-10-07T02:26:37.966Z,1.900
2022-10-07T02:27:32.186Z,1.700
2022-10-07T02:28:32.318Z,1.900
2022-10-07T02:29:23.712Z,2.050
2022-10-07T02:30:37.024Z,2.450
2022-10-07T03:49:51.094Z,2.600
2022-10-07T03:50:33.956Z,2.600
2022-10-07T03:51:33.956Z,2.250
2022-10-07T03:52:24.535Z,2.500
2022-10-07T03:53:25.156Z,2.100
2022-10-07T03:54:33.219Z,2.200
2022-10-07T03:55:30.531Z,2.400
2022-10-07T03:56:34.367Z,2.250
2022-10-07T03:57:40.663Z,2.500
2022-10-07T03:58:41.157Z,2.400
2022-10-07T03:59:22.303Z,2.050
2022-10-07T04:00:21.531Z,1.950
2022-10-07T04:01:31.160Z,2.300
2022-10-07T04:02:32.660Z,2.400
2022-10-07T04:03:22.778Z,2.300
2022-10-07T04:04:33.255Z,2.600
2022-10-07T04:05:28.612Z,2.600
2022-10-07T04:06:27.935Z,2.600
2022-10-07T04:07:20.398Z,2.250
2022-10-07T04:08:34.729Z,2.250
2022-10-07T04:09:27.214Z,2.150
2022-10-07T04:10:23.885Z,2.400
2022-10-07T04:11:34.604Z,2.600
2022-10-07T04:12:32.094Z,2.600
2022-10-07T04:13:29.781Z,2.000
2022-10-07T04:14:23.857Z,2.200
2022-10-07T04:15:23.799Z,2.450
2022-10-07T04:16:26.675Z,2.400
2022-10-07T04:17:25.336Z,2.550
2022-10-07T04:18:35.147Z,2.700
2022-10-07T04:19:30.947Z,2.200
2022-10-07T04:20:26.537Z,2.300
2022-10-07T04:21:23.730Z,2.300
2022-10-07T04:22:29.590Z,2.300
2022-10-07T04:23:19.351Z,2.300
2022-10-07T04:24:25.849Z,2.500
2022-10-07T04:25:34.238Z,2.400
2022-10-07T04:26:23.113Z,2.600
2022-10-07T04:27:50.027Z,2.500
2022-10-07T04:28:20.134Z,2.800
2022-10-07T04:29:39.283Z,2.850
2022-10-07T04:30:26.686Z,2.200
2022-10-07T04:31:22.746Z,2.800
2022-10-07T04:32:28.324Z,2.600
2022-10-07T04:33:28.442Z,2.750
2022-10-07T04:34:26.904Z,2.600
2022-10-07T04:35:22.674Z,2.600
2022-10-07T04:36:37.779Z,2.000
2022-10-07T04:37:27.555Z,2.150
2022-10-07T04:38:28.392Z,2.400
2022-10-07T04:39:56.067Z,2.450
2022-10-07T04:40:28.498Z,2.700
2022-10-07T04:41:28.480Z,2.200
2022-10-07T04:42:20.760Z,2.700
2022-10-07T04:43:26.303Z,2.950
2022-10-07T04:44:26.642Z,2.450
2022-10-07T04:45:28.206Z,2.400
2022-10-07T04:46:24.399Z,2.500
2022-10-07T04:47:28.453Z,2.650
2022-10-07T04:48:27.040Z,2.900
2022-10-07T04:49:20.531Z,2.600
2022-10-07T04:50:30.390Z,2.650
2022-10-07T04:51:29.586Z,3.100
2022-10-07T04:52:22.520Z,2.600
2022-10-07T04:53:27.800Z,2.750
2022-10-07T04:54:30.969Z,2.550
2022-10-07T04:55:27.043Z,2.800
2022-10-07T04:56:20.924Z,2.750
2022-10-07T04:57:33.631Z,2.450
2022-10-07T04:58:27.938Z,2.500
2022-10-07T04:59:23.734Z,2.500
2022-10-07T05:00:24.914Z,2.150
2022-10-07T05:01:31.939Z,2.800
2022-10-07T05:02:24.576Z,2.800
2022-10-07T05:03:20.658Z,3.100
2022-10-07T05:04:25.425Z,2.800
2022-10-07T05:05:26.846Z,2.750
2022-10-07T05:06:24.013Z,2.800
2022-10-07T05:07:35.438Z,2.950
2022-10-07T05:08:23.991Z,2.300
2022-10-07T05:09:27.299Z,2.350
2022-10-07T05:10:21.359Z,2.600
2022-10-07T05:11:21.668Z,2.200
2022-10-07T05:12:29.617Z,2.100
2022-10-07T05:13:22.311Z,2.350
2022-10-07T05:14:32.218Z,2.900
2022-10-07T05:15:21.881Z,2.800
2022-10-07T05:16:20.976Z,3.100
2022-10-07T05:17:23.471Z,2.850
2022-10-07T05:18:27.600Z,2.700
2022-10-07T05:19:28.327Z,2.400
2022-10-07T05:20:26.287Z,2.850
2022-10-07T05:21:32.772Z,2.600
2022-10-07T05:22:24.010Z,2.600
2022-10-07T05:23:28.322Z,2.500
2022-10-07T05:24:23.442Z,2.800
2022-10-07T05:25:46.927Z,2.900
2022-10-07T05:26:26.697Z,2.800
2022-10-07T05:27:22.203Z,2.900
2022-10-07T05:28:24.562Z,2.700
2022-10-07T05:29:25.900Z,3.000
2022-10-07T05:30:26.199Z,3.150
2022-10-07T05:31:21.969Z,2.950
2022-10-07T05:32:30.468Z,2.400
2022-10-07T05:33:21.185Z,2.550
2022-10-07T05:34:24.769Z,2.900
2022-10-07T05:35:32.336Z,3.250
2022-10-07T05:36:38.337Z,3.100
2022-10-07T05:37:25.897Z,2.900
2022-10-07T05:38:25.170Z,2.700
2022-10-07T05:39:20.127Z,2.550
2022-10-07T05:40:26.059Z,2.900
2022-10-07T05:41:22.814Z,2.700
2022-10-07T05:42:32.428Z,2.650
2022-10-07T05:43:30.237Z,3.000
2022-10-07T05:44:29.017Z,2.800
2022-10-07T05:45:20.728Z,2.700
2022-10-07T05:46:22.802Z,2.750
2022-10-07T05:47:45.185Z,2.700
2022-10-07T05:48:24.179Z,2.700
2022-10-07T05:49:37.645Z,3.200
2022-10-07T05:50:30.076Z,3.500
2022-10-07T05:51:27.131Z,3.150
2022-10-07T05:52:23.082Z,2.550
2022-10-07T05:53:26.266Z,2.550
2022-10-07T05:54:23.104Z,3.200
2022-10-07T05:55:22.613Z,3.300
2022-10-07T05:56:23.395Z,3.100
2022-10-07T05:57:32.000Z,3.450
2022-10-07T05:58:43.136Z,2.900
2022-10-07T05:59:22.094Z,2.900
2022-10-07T06:00:33.917Z,3.350
2022-10-07T06:01:22.028Z,3.900
2022-10-07T06:02:19.597Z,3.650
2022-10-07T06:03:32.395Z,3.000
2022-10-07T06:04:28.538Z,3.100
2022-10-07T06:05:26.678Z,3.300
2022-10-07T06:06:20.715Z,3.200
2022-10-07T06:07:33.406Z,3.200
2022-10-07T06:08:28.423Z,3.200
2022-10-07T06:09:21.578Z,2.900
2022-10-07T06:10:33.016Z,2.800
2022-10-07T06:11:30.680Z,2.700
2022-10-07T06:12:26.831Z,2.600
2022-10-07T06:13:29.733Z,2.450
2022-10-07T06:14:30.921Z,2.150
2022-10-07T06:15:30.940Z,2.300
2022-10-07T06:16:23.840Z,2.300
2022-10-07T06:17:35.696Z,2.100
2022-10-07T06:18:30.701Z,2.900
2022-10-07T06:19:24.301Z,3.100
2022-10-07T06:20:34.571Z,3.000
2022-10-07T06:21:31.473Z,3.250
2022-10-07T06:22:27.753Z,3.000
2022-10-07T06:23:22.209Z,3.500
2022-10-07T06:24:24.627Z,3.250
2022-10-07T06:25:29.665Z,3.050
2022-10-07T06:26:24.197Z,2.800
2022-10-07T06:27:21.710Z,2.300
2022-10-07T06:28:31.923Z,2.350
2022-10-07T06:29:26.728Z,3.100
2022-10-07T06:30:23.803Z,2.900
2022-10-07T06:31:26.468Z,2.600
2022-10-07T06:32:21.778Z,2.700
2022-10-07T06:33:26.722Z,2.550
2022-10-07T06:34:20.318Z,2.500
2022-10-07T06:35:36.157Z,2.700
2022-10-07T06:36:26.615Z,2.450
2022-10-07T06:37:24.914Z,2.300
2022-10-07T06:38:22.813Z,2.750
2022-10-07T06:39:22.010Z,3.400
2022-10-07T06:40:27.611Z,2.300
2022-10-07T06:41:24.950Z,2.750
2022-10-07T06:42:30.420Z,2.550
2022-10-07T06:43:31.584Z,2.400
2022-10-07T06:44:22.759Z,2.600
2022-10-07T06:45:25.341Z,3.200
2022-10-07T06:46:23.871Z,3.800
2022-10-07T06:47:21.536Z,2.950
2022-10-07T06:48:20.821Z,3.200
2022-10-07T06:49:20.943Z,3.050
2022-10-07T06:50:26.702Z,2.500
2022-10-07T06:51:24.476Z,2.600
2022-10-07T06:52:19.798Z,2.550
2022-10-07T06:53:31.811Z,2.700
2022-10-07T06:54:24.590Z,2.700
2022-10-07T06:55:22.684Z,3.700
2022-10-07T06:56:24.605Z,4.150
2022-10-07T06:57:56.032Z,4.400
2022-10-07T06:58:26.713Z,4.500
2022-10-07T06:59:36.036Z,3.850
2022-10-07T07:00:28.786Z,3.700
2022-10-07T07:01:31.512Z,3.000
2022-10-07T07:02:24.188Z,3.200
2022-10-07T07:03:28.277Z,3.600
2022-10-07T07:04:28.307Z,3.600
2022-10-07T07:05:22.517Z,3.850
2022-10-07T07:06:35.052Z,4.500
2022-10-07T07:07:23.549Z,3.700
2022-10-07T07:08:24.612Z,4.600
2022-10-07T07:09:22.665Z,3.450
2022-10-07T07:10:19.967Z,3.250
2022-10-07T07:11:26.482Z,2.700
2022-10-07T07:12:27.605Z,2.850
2022-10-07T07:13:34.328Z,3.150
2022-10-07T07:14:27.448Z,3.900
2022-10-07T07:15:30.577Z,4.000
2022-10-07T07:16:20.683Z,3.450
2022-10-07T07:17:26.516Z,3.350
2022-10-07T07:18:26.250Z,2.700
2022-10-07T07:19:22.481Z,3.150
2022-10-07T07:20:35.428Z,3.300
2022-10-07T07:21:30.799Z,2.700
2022-10-07T07:22:27.384Z,2.700
2022-10-07T07:23:22.592Z,2.850
2022-10-07T07:24:23.161Z,3.250
2022-10-07T07:25:24.548Z,3.150
2022-10-07T07:26:27.112Z,3.200
2022-10-07T07:27:34.780Z,3.050
2022-10-07T07:28:33.094Z,3.000
2022-10-07T07:29:31.032Z,3.650
2022-10-07T07:30:20.699Z,4.500
2022-10-07T07:31:27.383Z,5.400
2022-10-07T07:32:19.677Z,6.450
2022-10-07T07:33:22.388Z,5.900
2022-10-07T07:34:34.603Z,3.600
2022-10-07T07:35:31.931Z,3.850
2022-10-07T07:36:19.660Z,4.200
2022-10-07T07:37:39.968Z,5.200
2022-10-07T07:38:31.022Z,5.400
2022-10-07T07:39:23.716Z,4.200
2022-10-07T07:40:22.182Z,3.600
2022-10-07T07:41:34.616Z,3.950
2022-10-07T07:42:28.611Z,5.500
2022-10-07T07:43:27.650Z,4.900
2022-10-07T07:44:21.688Z,5.100
2022-10-07T07:45:35.299Z,6.850
2022-10-07T07:46:27.292Z,7.200
2022-10-07T07:47:25.035Z,6.400
2022-10-07T07:48:19.574Z,6.500
2022-10-07T07:49:34.294Z,5.350
2022-10-07T07:50:29.298Z,5.050
2022-10-07T07:51:22.881Z,4.900
2022-10-07T07:52:33.502Z,4.750
2022-10-07T07:53:26.705Z,4.600
2022-10-07T07:54:25.994Z,4.650
2022-10-07T07:55:24.160Z,5.200
2022-10-07T07:56:28.507Z,5.100
2022-10-07T07:57:29.856Z,4.800
2022-10-07T07:58:20.691Z,5.250
2022-10-07T07:59:30.444Z,3.900
2022-10-07T08:00:28.673Z,3.950
2022-10-07T08:01:25.063Z,4.500
2022-10-07T08:02:24.328Z,4.500
2022-10-07T08:03:22.802Z,3.950
2022-10-07T08:04:24.685Z,4.300
2022-10-07T08:05:24.162Z,4.050
2022-10-07T08:06:34.411Z,5.700
2022-10-07T08:07:28.922Z,5.350
2022-10-07T08:08:27.282Z,5.200
2022-10-07T08:09:26.030Z,5.200
2022-10-07T08:10:25.378Z,4.850
2022-10-07T08:11:35.622Z,5.950
2022-10-07T08:12:21.789Z,5.600
2022-10-07T08:13:31.732Z,6.300
2022-10-07T08:14:27.684Z,6.150
2022-10-07T08:15:25.897Z,4.950
2022-10-07T08:16:29.744Z,6.500
2022-10-07T08:17:25.796Z,6.100
2022-10-07T08:18:25.640Z,7.000
2022-10-07T08:19:23.401Z,7.350
2022-10-07T08:20:33.466Z,7.600
2022-10-07T08:21:27.710Z,6.800
2022-10-07T08:22:22.668Z,6.900
2022-10-07T08:23:20.814Z,7.500
2022-10-07T08:24:31.706Z,7.700
2022-10-07T08:25:22.414Z,7.100
2022-10-07T08:26:29.233Z,6.300
2022-10-07T08:27:31.110Z,5.600
2022-10-07T08:28:30.718Z,5.000
2022-10-07T08:29:23.039Z,5.100
2022-10-07T08:30:23.384Z,5.200
2022-10-07T08:31:33.018Z,5.500
2022-10-07T08:32:24.666Z,5.300
2022-10-07T08:33:21.840Z,5.150
2022-10-07T08:34:31.409Z,4.950
2022-10-07T08:35:30.248Z,5.200
2022-10-07T08:36:23.144Z,5.200
2022-10-07T08:37:29.189Z,5.200
2022-10-07T08:38:30.324Z,6.200
2022-10-07T08:39:23.484Z,5.750
2022-10-07T08:40:20.457Z,4.700
2022-10-07T08:41:32.953Z,4.600
2022-10-07T08:42:33.009Z,5.950
2022-10-07T08:43:22.776Z,6.450
2022-10-07T08:44:29.560Z,6.500
2022-10-07T08:45:30.141Z,6.550
2022-10-07T08:46:25.142Z,6.000
2022-10-07T08:47:23.953Z,5.100
2022-10-07T08:48:26.537Z,4.550
2022-10-07T08:49:28.941Z,4.550
2022-10-07T08:50:24.559Z,4.500
2022-10-07T08:51:35.191Z,5.050
2022-10-07T08:52:28.656Z,5.500
2022-10-07T08:53:26.337Z,4.750
2022-10-07T08:54:20.349Z,5.500
2022-10-07T08:55:23.630Z,5.400
2022-10-07T08:56:22.023Z,5.100
2022-10-07T08:57:24.479Z,4.200
2022-10-07T08:58:34.689Z,4.300
2022-10-07T08:59:21.861Z,4.650
2022-10-07T09:00:27.215Z,4.200
2022-10-07T09:01:25.393Z,4.000
2022-10-07T09:02:29.030Z,4.200
2022-10-07T09:03:26.893Z,3.900
2022-10-07T09:04:25.778Z,4.100
2022-10-07T09:05:35.078Z,3.950
2022-10-07T09:06:25.966Z,3.600
2022-10-07T09:07:26.949Z,3.200
2022-10-07T09:08:20.756Z,4.000
2022-10-07T09:09:32.569Z,4.800
2022-10-07T09:10:27.815Z,3.900
2022-10-07T09:11:23.171Z,4.000
2022-10-07T09:12:35.073Z,3.600
2022-10-07T09:13:28.426Z,2.950
2022-10-07T09:14:24.640Z,3.300
2022-10-07T09:15:24.783Z,3.600
2022-10-07T09:16:33.451Z,3.900
2022-10-07T09:17:22.517Z,4.000
2022-10-07T09:18:20.447Z,3.500
2022-10-07T09:19:23.826Z,3.500
2022-10-07T09:20:34.188Z,3.300
2022-10-07T09:21:27.388Z,4.000
2022-10-07T09:22:22.883Z,3.400
2022-10-07T09:23:32.923Z,2.900
2022-10-07T09:24:30.229Z,2.850
2022-10-07T09:25:25.760Z,3.000
2022-10-07T09:26:25.923Z,3.050
2022-10-07T09:27:28.422Z,3.300
2022-10-07T09:28:24.498Z,3.150
2022-10-07T09:29:21.253Z,3.200
2022-10-07T09:30:31.840Z,3.700
2022-10-07T09:31:28.951Z,3.300
2022-10-07T09:32:23.307Z,3.200
2022-10-07T09:33:25.460Z,2.950
2022-10-07T09:34:21.455Z,3.000
2022-10-07T09:35:25.017Z,2.700
2022-10-07T09:36:23.188Z,2.700
2022-10-07T09:37:32.516Z,2.350
2022-10-07T09:38:28.978Z,2.950
2022-10-07T09:39:22.649Z,3.000
2022-10-07T09:40:24.797Z,3.350
2022-10-07T09:41:31.174Z,2.700
2022-10-07T09:42:26.475Z,2.400
2022-10-07T09:43:31.775Z,2.500
2022-10-07T09:44:34.093Z,2.150
2022-10-07T09:45:29.166Z,2.550
2022-10-07T09:46:23.500Z,2.300
2022-10-07T09:47:32.546Z,2.300
2022-10-07T09:48:21.452Z,2.350
2022-10-07T09:49:27.264Z,2.700
2022-10-07T09:50:20.439Z,2.150
2022-10-07T09:51:32.246Z,2.300
2022-10-07T09:52:27.617Z,2.300
2022-10-07T09:53:26.218Z,2.300
2022-10-07T09:54:36.595Z,2.600
2022-10-07T09:55:31.946Z,2.300
2022-10-07T09:56:28.426Z,2.350
2022-10-07T09:57:20.418Z,2.700
2022-10-07T09:58:32.601Z,2.550
2022-10-07T09:59:29.508Z,2.300
2022-10-07T10:00:24.652Z,2.300
2022-10-07T10:01:32.551Z,2.550
2022-10-07T10:02:32.520Z,2.400
2022-10-07T10:03:24.956Z,2.300
2022-10-07T10:04:25.843Z,2.500
2022-10-07T10:05:30.822Z,2.450
2022-10-07T10:06:29.121Z,2.300
2022-10-07T10:07:22.814Z,2.700
2022-10-07T10:08:32.394Z,2.300
2022-10-07T10:09:25.551Z,2.750
2022-10-07T10:10:31.047Z,2.550
2022-10-07T10:11:20.762Z,2.700
2022-10-07T10:12:21.013Z,2.050
2022-10-07T10:13:26.911Z,2.650
2022-10-07T10:14:24.052Z,2.100
2022-10-07T10:15:20.301Z,2.200
2022-10-07T10:16:28.638Z,2.200
2022-10-07T10:17:24.594Z,2.450
2022-10-07T10:18:24.582Z,2.800
2022-10-07T10:19:28.030Z,2.300
2022-10-07T10:20:27.896Z,2.700
2022-10-07T10:21:24.929Z,2.550
2022-10-07T10:22:25.076Z,2.200
2022-10-07T10:23:28.558Z,2.500
2022-10-07T10:24:27.315Z,2.450
2022-10-07T10:25:24.242Z,2.200
2022-10-07T10:26:21.880Z,2.200
2022-10-07T10:27:22.871Z,2.200
2022-10-07T10:28:22.641Z,2.600
2022-10-07T10:29:36.126Z,2.650
2022-10-07T10:30:28.713Z,2.300
2022-10-07T10:31:24.832Z,2.500
2022-10-07T10:32:20.793Z,2.400
2022-10-07T10:33:27.535Z,2.500
2022-10-07T10:34:30.340Z,2.300
2022-10-07T10:35:22.675Z,2.150
2022-10-07T10:36:32.788Z,2.250
2022-10-07T10:37:24.276Z,2.500
2022-10-07T10:38:28.589Z,2.500
2022-10-07T10:39:24.158Z,2.200
2022-10-07T10:40:26.330Z,2.250
2022-10-07T10:41:24.640Z,2.250
2022-10-07T10:42:24.112Z,2.300
2022-10-07T10:43:31.008Z,2.550
2022-10-07T10:44:19.650Z,2.450
2022-10-07T10:45:29.275Z,2.500
2022-10-07T10:46:31.366Z,2.900
2022-10-07T10:47:28.183Z,2.700
2022-10-07T10:48:23.372Z,2.600
2022-10-07T10:49:22.568Z,2.300
2022-10-07T10:50:23.831Z,2.450
2022-10-07T10:51:22.638Z,2.500
2022-10-07T10:52:24.403Z,2.250
2022-10-07T10:53:23.777Z,2.200
2022-10-07T10:54:30.195Z,2.750
2022-10-07T10:55:29.530Z,2.350
2022-10-07T10:56:26.555Z,2.500
2022-10-07T10:57:36.133Z,2.450
2022-10-07T10:58:25.831Z,2.650
2022-10-07T10:59:27.636Z,2.600
2022-10-07T11:00:22.611Z,2.600
2022-10-07T11:01:37.096Z,2.400
2022-10-07T11:02:20.688Z,2.100
2022-10-07T11:03:27.093Z,2.500
2022-10-07T11:04:31.631Z,2.450
2022-10-07T11:05:25.804Z,2.550
2022-10-07T11:06:26.830Z,3.100
2022-10-07T11:07:22.418Z,2.800
2022-10-07T11:08:37.810Z,2.500
2022-10-07T11:09:28.612Z,2.750
2022-10-07T11:10:25.480Z,2.700
2022-10-07T11:11:24.990Z,2.400
2022-10-07T11:12:32.245Z,2.400
2022-10-07T11:13:25.754Z,2.400
2022-10-07T11:14:20.844Z,2.600
2022-10-07T11:15:31.557Z,2.700
2022-10-07T11:16:21.262Z,2.500
2022-10-07T11:17:24.630Z,2.300
2022-10-07T11:18:29.853Z,2.800
2022-10-07T11:19:24.044Z,2.400
2022-10-07T11:20:30.505Z,2.600
2022-10-07T11:21:23.283Z,4.300
2022-10-07T11:22:27.106Z,4.150
2022-10-07T11:23:27.255Z,3.600
2022-10-07T11:24:28.114Z,4.100
2022-10-07T11:25:32.459Z,3.600
2022-10-07T11:26:25.538Z,3.500
2022-10-07T11:27:29.664Z,3.150
2022-10-07T11:28:20.747Z,3.300
2022-10-07T11:29:31.677Z,3.450
2022-10-07T11:30:30.470Z,4.350
2022-10-07T11:31:22.742Z,5.000
2022-10-07T11:32:35.539Z,4.150
2022-10-07T11:33:22.507Z,4.550
2022-10-07T11:34:21.592Z,3.950
2022-10-07T11:35:22.858Z,3.900
2022-10-07T11:36:32.571Z,3.100
2022-10-07T11:37:52.955Z,3.200
2022-10-07T11:38:36.665Z,3.800
2022-10-07T11:39:29.476Z,3.850
2022-10-07T11:40:30.107Z,3.050
2022-10-07T11:41:25.529Z,3.350
2022-10-07T11:42:20.678Z,2.900
2022-10-07T11:43:24.058Z,2.950
2022-10-07T11:44:27.044Z,2.750
2022-10-07T11:45:28.363Z,2.600
2022-10-07T11:46:36.696Z,2.850
2022-10-07T11:47:31.726Z,3.000
2022-10-07T11:48:24.582Z,3.000
2022-10-07T11:49:25.175Z,3.100
2022-10-07T11:50:28.045Z,3.100
2022-10-07T11:51:27.505Z,2.750
2022-10-07T11:52:24.398Z,2.700
2022-10-07T11:53:35.883Z,2.650
2022-10-07T11:54:29.880Z,2.500
2022-10-07T11:55:24.407Z,2.400
2022-10-07T11:56:20.938Z,2.700
2022-10-07T11:57:22.139Z,2.600
2022-10-07T11:58:24.449Z,2.500
2022-10-07T11:59:22.491Z,2.550
2022-10-07T12:00:48.853Z,2.800
2022-10-07T12:01:24.357Z,2.600
2022-10-07T12:02:25.934Z,2.450
2022-10-07T12:03:28.081Z,2.800
2022-10-07T12:04:25.824Z,2.750
2022-10-07T12:05:27.417Z,2.650
2022-10-07T12:06:24.243Z,2.400
2022-10-07T12:07:21.851Z,2.350
2022-10-07T12:08:30.540Z,2.900
2022-10-07T12:09:25.122Z,2.250
2022-10-07T12:10:21.745Z,2.400
2022-10-07T12:11:27.663Z,2.600
2022-10-07T12:12:22.226Z,2.800
2022-10-07T12:13:30.143Z,2.500
2022-10-07T12:14:26.745Z,2.400
2022-10-07T12:15:30.205Z,2.400
2022-10-07T12:16:27.023Z,2.300
2022-10-07T12:17:21.592Z,2.200
2022-10-07T12:18:27.852Z,2.600
2022-10-07T12:19:28.581Z,2.450
2022-10-07T12:20:22.836Z,2.600
2022-10-07T12:21:22.243Z,2.450
2022-10-07T12:22:30.854Z,2.650
2022-10-07T12:23:28.271Z,2.450
2022-10-07T12:24:25.527Z,2.500
2022-10-07T12:25:24.261Z,2.350
2022-10-07T12:26:31.248Z,2.600
2022-10-07T12:27:27.607Z,2.650
2022-10-07T12:28:29.038Z,2.350
2022-10-07T12:29:21.685Z,2.300
2022-10-07T12:30:25.825Z,2.300
2022-10-07T12:31:21.475Z,2.300
2022-10-07T12:32:27.016Z,2.400
2022-10-07T12:33:30.088Z,2.500
2022-10-07T12:34:25.351Z,2.400
2022-10-07T12:35:28.116Z,2.550
2022-10-07T12:36:24.287Z,2.550
2022-10-07T12:37:24.739Z,2.600
2022-10-07T12:38:21.513Z,2.150
2022-10-07T12:39:28.511Z,2.200
2022-10-07T12:40:27.911Z,2.550
2022-10-07T12:41:23.500Z,2.350
2022-10-07T12:42:27.822Z,2.600
2022-10-07T12:43:26.610Z,2.600
2022-10-07T12:44:26.276Z,2.500
2022-10-07T12:45:24.334Z,2.450
2022-10-07T12:46:24.760Z,2.500
2022-10-07T12:47:28.251Z,2.350
2022-10-07T12:48:22.630Z,2.450
2022-10-07T12:49:28.569Z,2.400
2022-10-07T12:50:46.495Z,2.600
2022-10-07T12:51:26.432Z,2.750
2022-10-07T12:52:23.289Z,2.250
2022-10-07T12:53:35.469Z,2.400
2022-10-07T12:54:24.761Z,2.400
2022-10-07T12:55:29.520Z,2.000
2022-10-07T12:56:34.771Z,2.400
2022-10-07T12:57:23.825Z,2.300
2022-10-07T12:58:24.548Z,2.200
2022-10-07T12:59:27.280Z,2.200
2022-10-07T13:00:33.854Z,2.300
2022-10-07T13:01:29.143Z,2.300
2022-10-07T13:02:25.139Z,2.300
2022-10-07T13:03:29.608Z,2.250
2022-10-07T13:04:43.075Z,2.300
2022-10-07T13:05:25.108Z,2.200
2022-10-07T13:06:25.147Z,2.100
2022-10-07T13:07:30.860Z,2.300
2022-10-07T13:08:29.844Z,2.300
2022-10-07T13:09:26.963Z,2.050
2022-10-07T13:10:34.645Z,2.150
2022-10-07T13:11:34.425Z,2.400
2022-10-07T13:12:31.244Z,2.450
2022-10-07T13:13:20.837Z,2.300
2022-10-07T13:14:24.915Z,2.150
2022-10-07T13:15:29.524Z,2.150
2022-10-07T13:16:22.647Z,2.100
2022-10-07T13:17:34.449Z,2.150
2022-10-07T13:18:29.011Z,2.200
2022-10-07T13:19:30.816Z,1.900
2022-10-07T13:20:24.867Z,1.900
2022-10-07T13:21:28.806Z,1.950
2022-10-07T13:22:25.742Z,2.200
2022-10-07T13:23:27.091Z,1.950
2022-10-07T13:24:32.847Z,2.200
2022-10-07T13:25:29.007Z,2.200
2022-10-07T13:26:28.130Z,1.950
2022-10-07T13:27:20.601Z,2.000
2022-10-07T13:28:31.405Z,2.050
2022-10-07T13:29:27.894Z,2.200
2022-10-07T13:30:24.176Z,2.000
2022-10-07T13:31:24.390Z,2.200
2022-10-07T13:32:32.113Z,1.900
2022-10-07T13:33:26.449Z,1.900
2022-10-07T13:34:20.823Z,1.800
2022-10-07T13:35:22.305Z,1.750
2022-10-07T13:36:29.809Z,2.000
2022-10-07T13:37:23.868Z,2.000
2022-10-07T13:38:36.898Z,1.900
2022-10-07T13:39:30.757Z,2.000
2022-10-07T13:40:26.550Z,2.000
2022-10-07T13:41:29.688Z,1.900
2022-10-07T13:42:21.663Z,2.100
2022-10-07T13:43:27.838Z,1.950
2022-10-07T13:44:25.929Z,2.100
2022-10-07T13:45:32.584Z,2.100
2022-10-07T13:46:30.689Z,2.050
2022-10-07T13:47:26.195Z,2.100
2022-10-07T13:48:21.247Z,1.950
2022-10-07T13:49:30.944Z,2.000
2022-10-07T13:50:24.668Z,1.950
2022-10-07T13:51:22.722Z,1.900
2022-10-07T13:52:19.795Z,2.000
2022-10-07T13:53:30.930Z,2.000
2022-10-07T13:54:24.664Z,2.200
2022-10-07T13:55:25.902Z,2.100
2022-10-07T13:56:30.481Z,2.200
2022-10-07T13:57:29.470Z,2.000
2022-10-07T13:58:25.803Z,2.300
2022-10-07T13:59:23.847Z,2.100
2022-10-07T14:00:19.868Z,1.950
2022-10-07T14:01:28.187Z,2.100
2022-10-07T14:02:27.549Z,1.850
2022-10-07T14:03:30.691Z,1.950
2022-10-07T14:04:30.011Z,1.900
2022-10-07T14:05:26.860Z,1.900
2022-10-07T14:06:26.548Z,2.050
2022-10-07T14:07:23.661Z,2.000
2022-10-07T14:08:27.103Z,1.900
2022-10-07T14:09:20.682Z,2.050
2022-10-07T14:10:26.223Z,1.900
2022-10-07T14:11:29.711Z,2.050
2022-10-07T14:12:29.608Z,1.800
2022-10-07T14:13:22.632Z,2.150
2022-10-07T14:14:28.856Z,1.800
2022-10-07T14:15:23.243Z,2.000
2022-10-07T14:16:20.978Z,1.900
2022-10-07T14:17:26.406Z,2.200
2022-10-07T14:18:28.861Z,2.100
2022-10-07T14:19:22.598Z,2.000
2022-10-07T14:20:29.602Z,2.000
2022-10-07T14:21:28.909Z,2.100
2022-10-07T14:22:25.100Z,1.900
2022-10-07T14:23:21.413Z,2.050
2022-10-07T14:24:26.592Z,1.900
2022-10-07T14:25:29.082Z,2.100
2022-10-07T14:26:23.423Z,2.050
2022-10-07T14:27:24.855Z,2.100
2022-10-07T14:28:24.715Z,1.950
2022-10-07T14:29:28.077Z,2.100
2022-10-07T14:30:24.510Z,1.900
2022-10-07T14:31:31.128Z,1.900
2022-10-07T14:32:26.954Z,2.200
2022-10-07T14:33:26.898Z,2.050
2022-10-07T14:34:34.201Z,1.950
2022-10-07T14:35:29.731Z,2.300
2022-10-07T14:36:26.085Z,2.000
2022-10-07T14:37:20.600Z,1.900
2022-10-07T14:38:19.845Z,2.100
2022-10-07T14:39:23.358Z,2.000
2022-10-07T14:40:25.694Z,2.000
2022-10-07T14:41:36.725Z,2.150
2022-10-07T14:42:30.324Z,2.300
2022-10-07T14:43:26.835Z,2.300
2022-10-07T14:44:25.773Z,2.250
2022-10-07T14:45:24.028Z,2.000
2022-10-07T14:46:22.808Z,2.050
2022-10-07T14:47:24.182Z,2.100
2022-10-07T14:48:36.473Z,2.150
2022-10-07T14:49:33.598Z,2.200
2022-10-07T14:50:28.016Z,2.300
2022-10-07T14:51:25.683Z,2.200
2022-10-07T14:52:31.880Z,2.150
2022-10-07T14:53:22.474Z,2.300
2022-10-07T14:54:24.046Z,2.050
2022-10-07T14:55:20.613Z,2.300
2022-10-07T14:56:31.319Z,2.100
2022-10-07T14:57:22.463Z,1.950
2022-10-07T14:58:22.820Z,2.300
2022-10-07T14:59:34.823Z,2.050
2022-10-07T15:00:28.843Z,2.150
2022-10-07T15:01:25.036Z,2.000
2022-10-07T15:02:33.953Z,2.200
2022-10-07T15:03:28.871Z,2.250
2022-10-07T15:04:25.228Z,2.100
2022-10-07T15:05:20.934Z,1.950
2022-10-07T15:06:21.893Z,2.000
2022-10-07T15:07:31.471Z,2.200
2022-10-07T15:08:23.928Z,2.150
2022-10-07T15:09:34.470Z,1.800
2022-10-07T15:10:29.890Z,1.900
2022-10-07T15:11:26.802Z,2.100
2022-10-07T15:12:22.724Z,1.900
2022-10-07T15:13:28.191Z,2.000
2022-10-07T15:14:26.713Z,1.800
2022-10-07T15:15:25.282Z,1.700
2022-10-07T15:16:34.747Z,2.000
2022-10-07T15:17:28.731Z,1.900
2022-10-07T15:18:32.883Z,2.200
2022-10-07T15:19:20.828Z,2.200
2022-10-07T15:20:30.957Z,2.100
2022-10-07T15:21:24.845Z,2.050
2022-10-07T15:22:24.856Z,2.000
2022-10-07T15:23:24.017Z,1.950
2022-10-07T15:24:31.737Z,1.900
2022-10-07T15:25:25.531Z,1.900
2022-10-07T15:26:22.417Z,1.900
2022-10-07T15:27:35.535Z,1.850
2022-10-07T15:28:32.525Z,1.850
2022-10-07T15:29:24.090Z,1.900
2022-10-07T15:30:36.886Z,1.800
2022-10-07T15:31:22.437Z,1.850
2022-10-07T15:32:29.669Z,1.600
2022-10-07T15:33:26.505Z,1.850